sensor_id;sensor_type;location;lat;lon;timestamp;temperature;humidity
29281;DHT22;25048;49.590;11.026;2023-04-03T00:01:18;3.00;99.90
29281;DHT22;25048;49.590;11.026;2023-04-03T00:03:46;2.90;99.90
29281;DHT22;25048;49.590;11.026;2023-04-03T00:06:13;2.90;99.90
29281;DHT22;25048;49.590;11.026;2023-04-03T00:08:41;2.90;99.90
29281;DHT22;25048;49.590;11.026;2023-04-03T00:11:09;2.80;99.90
29281;DHT22;25048;49.590;11.026;2023-04-03T00:13:37;2.70;99.90
29281;DHT22;25048;49.590;11.026;2023-04-03T00:16:06;2.60;99.90
29281;DHT22;25048;49.590;11.026;2023-04-03T00:18:35;2.60;99.90
29281;DHT22;25048;49.590;11.026;2023-04-03T00:21:03;2.40;99.90
29281;DHT22;25048;49.590;11.026;2023-04-03T00:23:31;2.30;99.90
29281;DHT22;25048;49.590;11.026;2023-04-03T00:25:58;2.20;99.90
29281;DHT22;25048;49.590;11.026;2023-04-03T00:28:26;2.20;99.90
29281;DHT22;25048;49.590;11.026;2023-04-03T00:30:53;2.10;99.90
29281;DHT22;25048;49.590;11.026;2023-04-03T00:33:21;2.00;99.90
29281;DHT22;25048;49.590;11.026;2023-04-03T00:35:48;2.00;99.90
29281;DHT22;25048;49.590;11.026;2023-04-03T00:38:17;1.90;99.90
29281;DHT22;25048;49.590;11.026;2023-04-03T00:40:47;1.90;99.90
29281;DHT22;25048;49.590;11.026;2023-04-03T00:43:21;1.80;99.90
29281;DHT22;25048;49.590;11.026;2023-04-03T00:45:50;1.80;99.90
29281;DHT22;25048;49.590;11.026;2023-04-03T00:48:25;1.80;99.90
29281;DHT22;25048;49.590;11.026;2023-04-03T00:50:52;1.80;99.90
29281;DHT22;25048;49.590;11.026;2023-04-03T00:53:23;1.90;99.90
29281;DHT22;25048;49.590;11.026;2023-04-03T00:55:51;1.90;99.90
29281;DHT22;25048;49.590;11.026;2023-04-03T00:58:25;2.00;99.90
29281;DHT22;25048;49.590;11.026;2023-04-03T01:00:54;2.10;99.90
29281;DHT22;25048;49.590;11.026;2023-04-03T01:03:24;2.20;99.90
29281;DHT22;25048;49.590;11.026;2023-04-03T01:05:51;2.20;99.90
29281;DHT22;25048;49.590;11.026;2023-04-03T01:08:19;2.20;99.90
29281;DHT22;25048;49.590;11.026;2023-04-03T01:10:46;2.20;99.90
29281;DHT22;25048;49.590;11.026;2023-04-03T01:13:25;2.20;99.90
29281;DHT22;25048;49.590;11.026;2023-04-03T01:15:54;2.20;99.90
29281;DHT22;25048;49.590;11.026;2023-04-03T01:18:23;2.20;99.90
29281;DHT22;25048;49.590;11.026;2023-04-03T01:24:00;2.20;99.90
29281;DHT22;25048;49.590;11.026;2023-04-03T01:26:28;2.10;99.90
29281;DHT22;25048;49.590;11.026;2023-04-03T01:28:55;2.00;99.90
29281;DHT22;25048;49.590;11.026;2023-04-03T01:31:32;2.00;99.90
29281;DHT22;25048;49.590;11.026;2023-04-03T01:33:58;1.90;99.90
29281;DHT22;25048;49.590;11.026;2023-04-03T01:36:28;1.80;99.90
29281;DHT22;25048;49.590;11.026;2023-04-03T01:38:58;1.80;99.90
29281;DHT22;25048;49.590;11.026;2023-04-03T01:41:26;1.80;99.90
29281;DHT22;25048;49.590;11.026;2023-04-03T01:43:54;1.70;99.90
29281;DHT22;25048;49.590;11.026;2023-04-03T01:46:22;1.70;99.90
29281;DHT22;25048;49.590;11.026;2023-04-03T01:48:50;1.60;99.90
29281;DHT22;25048;49.590;11.026;2023-04-03T01:51:17;1.60;99.90
29281;DHT22;25048;49.590;11.026;2023-04-03T01:53:45;1.60;99.90
29281;DHT22;25048;49.590;11.026;2023-04-03T01:56:12;1.60;99.90
29281;DHT22;25048;49.590;11.026;2023-04-03T01:58:40;1.50;99.90
29281;DHT22;25048;49.590;11.026;2023-04-03T02:01:07;1.40;99.90
29281;DHT22;25048;49.590;11.026;2023-04-03T02:03:35;1.50;99.90
29281;DHT22;25048;49.590;11.026;2023-04-03T02:06:03;1.50;99.90
29281;DHT22;25048;49.590;11.026;2023-04-03T02:08:31;1.40;99.90
29281;DHT22;25048;49.590;11.026;2023-04-03T02:10:58;1.40;99.90
29281;DHT22;25048;49.590;11.026;2023-04-03T02:13:26;1.40;99.90
29281;DHT22;25048;49.590;11.026;2023-04-03T02:15:53;1.40;99.90
29281;DHT22;25048;49.590;11.026;2023-04-03T02:18:21;1.40;99.90
29281;DHT22;25048;49.590;11.026;2023-04-03T02:20:48;1.40;99.90
29281;DHT22;25048;49.590;11.026;2023-04-03T02:23:16;1.40;99.90
29281;DHT22;25048;49.590;11.026;2023-04-03T02:25:43;1.50;99.90
29281;DHT22;25048;49.590;11.026;2023-04-03T02:28:11;1.60;99.90
29281;DHT22;25048;49.590;11.026;2023-04-03T02:30:39;1.60;99.90
29281;DHT22;25048;49.590;11.026;2023-04-03T02:33:06;1.70;99.90
29281;DHT22;25048;49.590;11.026;2023-04-03T02:35:34;1.80;99.90
29281;DHT22;25048;49.590;11.026;2023-04-03T02:38:03;1.90;99.90
29281;DHT22;25048;49.590;11.026;2023-04-03T02:40:30;2.00;99.90
29281;DHT22;25048;49.590;11.026;2023-04-03T02:42:58;2.00;99.90
29281;DHT22;25048;49.590;11.026;2023-04-03T02:45:26;2.10;99.90
29281;DHT22;25048;49.590;11.026;2023-04-03T02:47:53;2.10;99.90
29281;DHT22;25048;49.590;11.026;2023-04-03T02:50:21;2.20;99.90
29281;DHT22;25048;49.590;11.026;2023-04-03T02:52:48;2.20;99.90
29281;DHT22;25048;49.590;11.026;2023-04-03T02:55:16;2.30;99.90
29281;DHT22;25048;49.590;11.026;2023-04-03T02:57:43;2.40;99.90
29281;DHT22;25048;49.590;11.026;2023-04-03T03:00:11;2.40;99.90
29281;DHT22;25048;49.590;11.026;2023-04-03T03:02:39;2.40;99.90
29281;DHT22;25048;49.590;11.026;2023-04-03T03:05:07;2.50;99.90
29281;DHT22;25048;49.590;11.026;2023-04-03T03:07:35;2.50;99.90
29281;DHT22;25048;49.590;11.026;2023-04-03T03:10:02;2.50;99.90
29281;DHT22;25048;49.590;11.026;2023-04-03T03:12:30;2.50;99.90
29281;DHT22;25048;49.590;11.026;2023-04-03T03:14:57;2.50;99.90
29281;DHT22;25048;49.590;11.026;2023-04-03T03:17:25;2.50;99.90
29281;DHT22;25048;49.590;11.026;2023-04-03T03:19:52;2.50;99.90
29281;DHT22;25048;49.590;11.026;2023-04-03T03:22:20;2.50;99.90
29281;DHT22;25048;49.590;11.026;2023-04-03T03:24:47;2.40;99.90
29281;DHT22;25048;49.590;11.026;2023-04-03T03:27:15;2.40;99.90
29281;DHT22;25048;49.590;11.026;2023-04-03T03:29:43;2.40;99.90
29281;DHT22;25048;49.590;11.026;2023-04-03T03:32:10;2.30;99.90
29281;DHT22;25048;49.590;11.026;2023-04-03T03:34:38;2.30;99.90
29281;DHT22;25048;49.590;11.026;2023-04-03T03:37:05;2.20;99.90
29281;DHT22;25048;49.590;11.026;2023-04-03T03:39:33;2.20;99.90
29281;DHT22;25048;49.590;11.026;2023-04-03T03:42:00;2.20;99.90
29281;DHT22;25048;49.590;11.026;2023-04-03T03:44:28;2.20;99.90
29281;DHT22;25048;49.590;11.026;2023-04-03T03:46:56;2.10;99.90
29281;DHT22;25048;49.590;11.026;2023-04-03T03:49:23;2.10;99.90
29281;DHT22;25048;49.590;11.026;2023-04-03T03:51:51;2.10;99.90
29281;DHT22;25048;49.590;11.026;2023-04-03T03:54:19;2.10;99.90
29281;DHT22;25048;49.590;11.026;2023-04-03T03:56:46;2.10;99.90
29281;DHT22;25048;49.590;11.026;2023-04-03T03:59:14;2.00;99.90
29281;DHT22;25048;49.590;11.026;2023-04-03T04:01:41;2.00;99.90
29281;DHT22;25048;49.590;11.026;2023-04-03T04:04:09;1.90;99.90
29281;DHT22;25048;49.590;11.026;2023-04-03T04:06:36;1.80;99.90
29281;DHT22;25048;49.590;11.026;2023-04-03T04:09:04;1.80;99.90
29281;DHT22;25048;49.590;11.026;2023-04-03T04:11:31;1.80;99.90
29281;DHT22;25048;49.590;11.026;2023-04-03T04:13:59;1.70;99.90
29281;DHT22;25048;49.590;11.026;2023-04-03T04:16:27;1.70;99.90
29281;DHT22;25048;49.590;11.026;2023-04-03T04:18:54;1.50;99.90
29281;DHT22;25048;49.590;11.026;2023-04-03T04:21:22;1.40;99.90
29281;DHT22;25048;49.590;11.026;2023-04-03T04:23:50;1.40;99.90
29281;DHT22;25048;49.590;11.026;2023-04-03T04:26:17;1.30;99.90
29281;DHT22;25048;49.590;11.026;2023-04-03T04:28:44;1.30;99.90
29281;DHT22;25048;49.590;11.026;2023-04-03T04:31:12;1.20;99.90
29281;DHT22;25048;49.590;11.026;2023-04-03T04:33:39;1.20;99.90
29281;DHT22;25048;49.590;11.026;2023-04-03T04:36:07;1.20;99.90
29281;DHT22;25048;49.590;11.026;2023-04-03T04:38:34;1.10;99.90
29281;DHT22;25048;49.590;11.026;2023-04-03T04:41:02;1.10;99.90
29281;DHT22;25048;49.590;11.026;2023-04-03T04:43:29;1.10;99.90
29281;DHT22;25048;49.590;11.026;2023-04-03T04:46:09;1.00;99.90
29281;DHT22;25048;49.590;11.026;2023-04-03T04:48:39;1.00;99.90
29281;DHT22;25048;49.590;11.026;2023-04-03T04:51:07;1.00;99.90
29281;DHT22;25048;49.590;11.026;2023-04-03T04:53:35;0.90;99.90
29281;DHT22;25048;49.590;11.026;2023-04-03T04:56:02;0.80;99.90
29281;DHT22;25048;49.590;11.026;2023-04-03T04:58:30;0.70;99.90
29281;DHT22;25048;49.590;11.026;2023-04-03T05:01:06;0.70;99.90
29281;DHT22;25048;49.590;11.026;2023-04-03T05:03:34;0.70;99.90
29281;DHT22;25048;49.590;11.026;2023-04-03T05:06:02;0.70;99.90
29281;DHT22;25048;49.590;11.026;2023-04-03T05:08:29;0.60;99.90
29281;DHT22;25048;49.590;11.026;2023-04-03T05:10:57;0.60;99.90
29281;DHT22;25048;49.590;11.026;2023-04-03T05:13:25;0.60;99.90
29281;DHT22;25048;49.590;11.026;2023-04-03T05:15:52;0.60;99.90
29281;DHT22;25048;49.590;11.026;2023-04-03T05:18:20;0.50;99.90
29281;DHT22;25048;49.590;11.026;2023-04-03T05:20:49;0.50;99.90
29281;DHT22;25048;49.590;11.026;2023-04-03T05:23:17;0.60;99.90
29281;DHT22;25048;49.590;11.026;2023-04-03T05:25:45;0.70;99.90
29281;DHT22;25048;49.590;11.026;2023-04-03T05:28:13;0.80;99.90
29281;DHT22;25048;49.590;11.026;2023-04-03T05:30:41;0.90;99.90
29281;DHT22;25048;49.590;11.026;2023-04-03T05:33:08;1.00;99.90
29281;DHT22;25048;49.590;11.026;2023-04-03T05:35:37;1.00;99.90
29281;DHT22;25048;49.590;11.026;2023-04-03T05:38:08;1.10;99.90
29281;DHT22;25048;49.590;11.026;2023-04-03T05:40:35;1.20;99.90
29281;DHT22;25048;49.590;11.026;2023-04-03T05:43:03;1.40;99.90
29281;DHT22;25048;49.590;11.026;2023-04-03T05:45:31;1.50;99.90
29281;DHT22;25048;49.590;11.026;2023-04-03T05:47:59;1.70;99.90
29281;DHT22;25048;49.590;11.026;2023-04-03T05:50:27;1.90;99.90
29281;DHT22;25048;49.590;11.026;2023-04-03T05:52:57;2.00;99.90
29281;DHT22;25048;49.590;11.026;2023-04-03T05:55:25;2.20;99.90
29281;DHT22;25048;49.590;11.026;2023-04-03T05:57:54;2.30;99.90
29281;DHT22;25048;49.590;11.026;2023-04-03T06:00:22;2.50;99.90
29281;DHT22;25048;49.590;11.026;2023-04-03T06:02:50;2.70;99.90
29281;DHT22;25048;49.590;11.026;2023-04-03T06:05:17;2.70;99.90
29281;DHT22;25048;49.590;11.026;2023-04-03T06:07:45;2.80;99.90
29281;DHT22;25048;49.590;11.026;2023-04-03T06:10:14;2.90;99.90
29281;DHT22;25048;49.590;11.026;2023-04-03T06:12:41;3.00;99.90
29281;DHT22;25048;49.590;11.026;2023-04-03T06:15:09;3.20;99.90
29281;DHT22;25048;49.590;11.026;2023-04-03T06:17:38;3.40;99.90
29281;DHT22;25048;49.590;11.026;2023-04-03T06:20:06;3.60;99.90
29281;DHT22;25048;49.590;11.026;2023-04-03T06:22:34;3.70;99.90
29281;DHT22;25048;49.590;11.026;2023-04-03T06:25:03;3.80;99.90
29281;DHT22;25048;49.590;11.026;2023-04-03T06:27:31;3.90;99.90
29281;DHT22;25048;49.590;11.026;2023-04-03T06:30:02;4.00;99.90
29281;DHT22;25048;49.590;11.026;2023-04-03T06:32:28;4.00;99.90
29281;DHT22;25048;49.590;11.026;2023-04-03T06:34:55;4.10;99.90
29281;DHT22;25048;49.590;11.026;2023-04-03T06:37:23;4.10;99.90
29281;DHT22;25048;49.590;11.026;2023-04-03T06:39:55;4.20;99.90
29281;DHT22;25048;49.590;11.026;2023-04-03T06:42:23;4.20;99.90
29281;DHT22;25048;49.590;11.026;2023-04-03T06:44:51;4.20;99.90
29281;DHT22;25048;49.590;11.026;2023-04-03T06:47:19;4.20;99.90
29281;DHT22;25048;49.590;11.026;2023-04-03T06:49:46;4.20;99.90
29281;DHT22;25048;49.590;11.026;2023-04-03T06:52:14;4.30;99.90
29281;DHT22;25048;49.590;11.026;2023-04-03T06:54:41;4.40;99.90
29281;DHT22;25048;49.590;11.026;2023-04-03T06:57:09;4.40;99.90
29281;DHT22;25048;49.590;11.026;2023-04-03T06:59:38;4.50;99.90
29281;DHT22;25048;49.590;11.026;2023-04-03T07:02:06;4.50;99.90
29281;DHT22;25048;49.590;11.026;2023-04-03T07:04:34;4.60;99.90
29281;DHT22;25048;49.590;11.026;2023-04-03T07:07:02;4.70;99.90
29281;DHT22;25048;49.590;11.026;2023-04-03T07:09:30;4.70;99.90
29281;DHT22;25048;49.590;11.026;2023-04-03T07:11:57;4.80;99.90
29281;DHT22;25048;49.590;11.026;2023-04-03T07:14:25;4.90;99.90
29281;DHT22;25048;49.590;11.026;2023-04-03T07:16:52;5.00;99.90
29281;DHT22;25048;49.590;11.026;2023-04-03T07:19:20;5.10;99.90
29281;DHT22;25048;49.590;11.026;2023-04-03T07:21:47;5.30;99.90
29281;DHT22;25048;49.590;11.026;2023-04-03T07:24:15;5.30;99.90
29281;DHT22;25048;49.590;11.026;2023-04-03T07:26:42;5.40;99.90
29281;DHT22;25048;49.590;11.026;2023-04-03T07:29:11;5.50;99.90
29281;DHT22;25048;49.590;11.026;2023-04-03T07:31:39;5.60;99.90
29281;DHT22;25048;49.590;11.026;2023-04-03T07:34:07;5.80;99.90
29281;DHT22;25048;49.590;11.026;2023-04-03T07:36:35;5.90;99.90
29281;DHT22;25048;49.590;11.026;2023-04-03T07:39:03;6.00;99.90
29281;DHT22;25048;49.590;11.026;2023-04-03T07:41:30;6.10;99.90
29281;DHT22;25048;49.590;11.026;2023-04-03T07:43:58;6.10;99.90
29281;DHT22;25048;49.590;11.026;2023-04-03T07:46:25;6.10;99.90
29281;DHT22;25048;49.590;11.026;2023-04-03T07:48:53;6.10;99.90
29281;DHT22;25048;49.590;11.026;2023-04-03T07:51:23;6.10;99.90
29281;DHT22;25048;49.590;11.026;2023-04-03T07:53:52;6.10;99.90
29281;DHT22;25048;49.590;11.026;2023-04-03T07:56:22;6.30;99.90
29281;DHT22;25048;49.590;11.026;2023-04-03T07:58:49;6.40;99.90
29281;DHT22;25048;49.590;11.026;2023-04-03T08:01:17;6.50;99.90
29281;DHT22;25048;49.590;11.026;2023-04-03T08:03:44;6.70;99.90
29281;DHT22;25048;49.590;11.026;2023-04-03T08:06:12;6.80;99.90
29281;DHT22;25048;49.590;11.026;2023-04-03T08:08:45;6.90;99.90
29281;DHT22;25048;49.590;11.026;2023-04-03T08:11:12;7.00;99.90
29281;DHT22;25048;49.590;11.026;2023-04-03T08:13:42;7.10;99.90
29281;DHT22;25048;49.590;11.026;2023-04-03T08:16:18;7.20;99.90
29281;DHT22;25048;49.590;11.026;2023-04-03T08:18:50;7.20;99.90
29281;DHT22;25048;49.590;11.026;2023-04-03T08:21:18;7.20;99.90
29281;DHT22;25048;49.590;11.026;2023-04-03T08:23:48;6.90;99.90
29281;DHT22;25048;49.590;11.026;2023-04-03T08:26:19;6.70;99.90
29281;DHT22;25048;49.590;11.026;2023-04-03T08:28:48;6.70;99.90
29281;DHT22;25048;49.590;11.026;2023-04-03T08:31:18;6.90;99.90
29281;DHT22;25048;49.590;11.026;2023-04-03T08:33:46;7.10;99.90
29281;DHT22;25048;49.590;11.026;2023-04-03T08:36:22;7.30;99.90
29281;DHT22;25048;49.590;11.026;2023-04-03T08:38:46;7.60;99.90
29281;DHT22;25048;49.590;11.026;2023-04-03T08:49:42;7.60;99.90
29281;DHT22;25048;49.590;11.026;2023-04-03T08:52:15;7.40;99.90
29281;DHT22;25048;49.590;11.026;2023-04-03T08:54:52;7.40;99.90
29281;DHT22;25048;49.590;11.026;2023-04-03T08:57:26;7.40;99.90
29281;DHT22;25048;49.590;11.026;2023-04-03T08:59:53;7.50;99.90
29281;DHT22;25048;49.590;11.026;2023-04-03T09:02:27;7.30;99.90
29281;DHT22;25048;49.590;11.026;2023-04-03T09:04:54;7.20;99.90
29281;DHT22;25048;49.590;11.026;2023-04-03T09:07:40;7.10;99.90
29281;DHT22;25048;49.590;11.026;2023-04-03T09:10:10;7.10;99.90
29281;DHT22;25048;49.590;11.026;2023-04-03T09:12:44;7.30;99.90
29281;DHT22;25048;49.590;11.026;2023-04-03T09:15:22;7.60;99.90
29281;DHT22;25048;49.590;11.026;2023-04-03T09:18:05;8.00;99.90
29281;DHT22;25048;49.590;11.026;2023-04-03T09:23:26;8.30;99.90
29281;DHT22;25048;49.590;11.026;2023-04-03T09:26:42;8.30;99.90
29281;DHT22;25048;49.590;11.026;2023-04-03T09:28:24;8.20;99.90
29281;DHT22;25048;49.590;11.026;2023-04-03T09:30:54;8.10;99.90
29281;DHT22;25048;49.590;11.026;2023-04-03T09:33:21;8.00;99.90
29281;DHT22;25048;49.590;11.026;2023-04-03T09:35:50;7.90;99.90
29281;DHT22;25048;49.590;11.026;2023-04-03T09:38:21;8.00;99.90
29281;DHT22;25048;49.590;11.026;2023-04-03T09:41:02;8.10;99.90
29281;DHT22;25048;49.590;11.026;2023-04-03T09:45:51;8.20;99.90
29281;DHT22;25048;49.590;11.026;2023-04-03T09:48:26;8.30;99.90
29281;DHT22;25048;49.590;11.026;2023-04-03T09:50:54;8.70;99.90
29281;DHT22;25048;49.590;11.026;2023-04-03T09:53:40;8.90;99.90
29281;DHT22;25048;49.590;11.026;2023-04-03T09:58:50;8.90;99.90
29281;DHT22;25048;49.590;11.026;2023-04-03T10:01:32;8.80;99.90
29281;DHT22;25048;49.590;11.026;2023-04-03T10:04:17;8.60;99.90
29281;DHT22;25048;49.590;11.026;2023-04-03T10:06:49;8.30;99.90
29281;DHT22;25048;49.590;11.026;2023-04-03T10:09:25;8.00;99.90
29281;DHT22;25048;49.590;11.026;2023-04-03T10:12:03;7.90;99.90
29281;DHT22;25048;49.590;11.026;2023-04-03T10:14:38;8.20;99.90
29281;DHT22;25048;49.590;11.026;2023-04-03T10:20:04;9.10;99.90
29281;DHT22;25048;49.590;11.026;2023-04-03T10:25:20;9.10;99.80
29281;DHT22;25048;49.590;11.026;2023-04-03T10:27:53;9.10;99.00
29281;DHT22;25048;49.590;11.026;2023-04-03T10:42:13;9.00;99.50
29281;DHT22;25048;49.590;11.026;2023-04-03T10:45:01;9.40;99.90
29281;DHT22;25048;49.590;11.026;2023-04-03T10:53:13;10.40;94.70
29281;DHT22;25048;49.590;11.026;2023-04-03T10:55:50;10.10;96.90
29281;DHT22;25048;49.590;11.026;2023-04-03T10:58:39;9.90;97.50
29281;DHT22;25048;49.590;11.026;2023-04-03T11:01:10;10.00;98.30
29281;DHT22;25048;49.590;11.026;2023-04-03T11:03:45;10.20;95.40
29281;DHT22;25048;49.590;11.026;2023-04-03T11:06:15;10.30;93.90
29281;DHT22;25048;49.590;11.026;2023-04-03T11:11:51;10.70;94.20
29281;DHT22;25048;49.590;11.026;2023-04-03T11:14:30;11.20;97.00
29281;DHT22;25048;49.590;11.026;2023-04-03T11:17:25;12.00;96.60
29281;DHT22;25048;49.590;11.026;2023-04-03T11:20:08;12.20;93.00
29281;DHT22;25048;49.590;11.026;2023-04-03T11:22:39;12.00;93.40
29281;DHT22;25048;49.590;11.026;2023-04-03T11:25:19;11.80;92.90
29281;DHT22;25048;49.590;11.026;2023-04-03T11:30:25;12.20;94.70
29281;DHT22;25048;49.590;11.026;2023-04-03T11:33:00;12.70;93.70
29281;DHT22;25048;49.590;11.026;2023-04-03T11:35:26;12.90;90.30
29281;DHT22;25048;49.590;11.026;2023-04-03T11:37:54;12.40;87.40
29281;DHT22;25048;49.590;11.026;2023-04-03T11:40:25;11.90;86.20
29281;DHT22;25048;49.590;11.026;2023-04-03T11:42:55;11.90;91.60
29281;DHT22;25048;49.590;11.026;2023-04-03T11:45:27;12.30;87.30
29281;DHT22;25048;49.590;11.026;2023-04-03T11:47:56;13.10;91.30
29281;DHT22;25048;49.590;11.026;2023-04-03T11:55:52;12.90;85.90
29281;DHT22;25048;49.590;11.026;2023-04-03T11:58:17;13.10;88.00
29281;DHT22;25048;49.590;11.026;2023-04-03T12:08:47;14.10;83.50
29281;DHT22;25048;49.590;11.026;2023-04-03T12:11:25;13.60;80.60
29281;DHT22;25048;49.590;11.026;2023-04-03T12:24:40;13.70;81.00
29281;DHT22;25048;49.590;11.026;2023-04-03T12:27:26;13.80;84.30
29281;DHT22;25048;49.590;11.026;2023-04-03T12:30:01;13.70;78.00
29281;DHT22;25048;49.590;11.026;2023-04-03T12:32:51;13.20;77.80
29281;DHT22;25048;49.590;11.026;2023-04-03T12:35:37;12.60;80.80
29281;DHT22;25048;49.590;11.026;2023-04-03T12:43:54;13.30;80.20
29281;DHT22;25048;49.590;11.026;2023-04-03T12:46:21;13.20;80.10
29281;DHT22;25048;49.590;11.026;2023-04-03T12:48:52;12.80;76.30
29281;DHT22;25048;49.590;11.026;2023-04-03T12:51:34;12.50;78.20
29281;DHT22;25048;49.590;11.026;2023-04-03T12:54:10;13.20;82.00
29281;DHT22;25048;49.590;11.026;2023-04-03T12:56:33;14.00;78.80
29281;DHT22;25048;49.590;11.026;2023-04-03T12:59:24;14.90;75.00
29281;DHT22;25048;49.590;11.026;2023-04-03T13:01:58;15.30;78.10
29281;DHT22;25048;49.590;11.026;2023-04-03T13:04:27;16.50;74.40
29281;DHT22;25048;49.590;11.026;2023-04-03T13:06:55;17.40;73.20
29281;DHT22;25048;49.590;11.026;2023-04-03T13:09:25;18.00;69.40
29281;DHT22;25048;49.590;11.026;2023-04-03T13:12:09;16.80;63.90
29281;DHT22;25048;49.590;11.026;2023-04-03T13:14:32;15.50;65.90
29281;DHT22;25048;49.590;11.026;2023-04-03T13:17:12;14.50;67.70
29281;DHT22;25048;49.590;11.026;2023-04-03T13:19:39;14.10;70.20
29281;DHT22;25048;49.590;11.026;2023-04-03T13:22:26;14.60;69.60
29281;DHT22;25048;49.590;11.026;2023-04-03T13:24:54;16.10;68.10
29281;DHT22;25048;49.590;11.026;2023-04-03T13:27:24;17.80;64.10
29281;DHT22;25048;49.590;11.026;2023-04-03T13:29:53;18.90;56.40
29281;DHT22;25048;49.590;11.026;2023-04-03T13:32:23;19.20;58.90
29281;DHT22;25048;49.590;11.026;2023-04-03T13:34:51;19.00;55.30
29281;DHT22;25048;49.590;11.026;2023-04-03T13:37:31;17.40;56.60
29281;DHT22;25048;49.590;11.026;2023-04-03T13:42:40;16.00;63.50
29281;DHT22;25048;49.590;11.026;2023-04-03T13:45:11;18.10;60.10
29281;DHT22;25048;49.590;11.026;2023-04-03T13:47:41;20.00;57.40
29281;DHT22;25048;49.590;11.026;2023-04-03T13:50:16;21.30;54.50
29281;DHT22;25048;49.590;11.026;2023-04-03T13:52:46;22.60;50.50
29281;DHT22;25048;49.590;11.026;2023-04-03T13:55:26;21.90;45.90
29281;DHT22;25048;49.590;11.026;2023-04-03T13:57:57;19.70;47.30
29281;DHT22;25048;49.590;11.026;2023-04-03T14:00:34;17.70;50.20
29281;DHT22;25048;49.590;11.026;2023-04-03T14:03:01;16.20;54.70
29281;DHT22;25048;49.590;11.026;2023-04-03T14:05:29;16.70;54.20
29281;DHT22;25048;49.590;11.026;2023-04-03T14:07:57;16.40;54.00
29281;DHT22;25048;49.590;11.026;2023-04-03T14:10:25;16.20;54.50
29281;DHT22;25048;49.590;11.026;2023-04-03T14:12:52;18.10;53.10
29281;DHT22;25048;49.590;11.026;2023-04-03T14:15:23;20.10;51.80
29281;DHT22;25048;49.590;11.026;2023-04-03T14:17:51;21.50;48.00
29281;DHT22;25048;49.590;11.026;2023-04-03T14:20:21;22.10;45.50
29281;DHT22;25048;49.590;11.026;2023-04-03T14:22:50;22.70;44.00
29281;DHT22;25048;49.590;11.026;2023-04-03T14:25:19;24.00;42.80
29281;DHT22;25048;49.590;11.026;2023-04-03T14:27:48;22.60;41.20
29281;DHT22;25048;49.590;11.026;2023-04-03T14:30:22;21.00;42.50
29281;DHT22;25048;49.590;11.026;2023-04-03T14:32:50;18.90;45.80
29281;DHT22;25048;49.590;11.026;2023-04-03T14:35:19;19.40;47.00
29281;DHT22;25048;49.590;11.026;2023-04-03T14:37:47;18.80;46.40
29281;DHT22;25048;49.590;11.026;2023-04-03T14:40:22;17.40;47.40
29281;DHT22;25048;49.590;11.026;2023-04-03T14:42:46;16.00;49.30
29281;DHT22;25048;49.590;11.026;2023-04-03T14:45:16;14.50;51.80
29281;DHT22;25048;49.590;11.026;2023-04-03T14:47:47;13.30;53.10
29281;DHT22;25048;49.590;11.026;2023-04-03T14:50:18;12.60;55.70
29281;DHT22;25048;49.590;11.026;2023-04-03T14:52:49;15.10;55.40
29281;DHT22;25048;49.590;11.026;2023-04-03T14:55:19;17.80;49.60
29281;DHT22;25048;49.590;11.026;2023-04-03T14:57:47;20.00;47.30
29281;DHT22;25048;49.590;11.026;2023-04-03T15:00:18;21.40;41.80
29281;DHT22;25048;49.590;11.026;2023-04-03T15:02:47;23.20;42.90
29281;DHT22;25048;49.590;11.026;2023-04-03T15:05:16;24.40;40.10
29281;DHT22;25048;49.590;11.026;2023-04-03T15:07:47;25.30;39.80
29281;DHT22;25048;49.590;11.026;2023-04-03T15:10:25;25.90;37.00
29281;DHT22;25048;49.590;11.026;2023-04-03T15:12:54;24.10;37.00
29281;DHT22;25048;49.590;11.026;2023-04-03T15:15:23;22.00;40.30
29281;DHT22;25048;49.590;11.026;2023-04-03T15:17:53;21.50;40.70
29281;DHT22;25048;49.590;11.026;2023-04-03T15:20:24;20.60;40.70
29281;DHT22;25048;49.590;11.026;2023-04-03T15:22:53;20.90;40.80
29281;DHT22;25048;49.590;11.026;2023-04-03T15:25:23;20.40;40.50
29281;DHT22;25048;49.590;11.026;2023-04-03T15:27:52;19.90;40.50
29281;DHT22;25048;49.590;11.026;2023-04-03T15:30:19;20.40;41.00
29281;DHT22;25048;49.590;11.026;2023-04-03T15:32:48;20.60;41.20
29281;DHT22;25048;49.590;11.026;2023-04-03T15:35:16;20.40;41.30
29281;DHT22;25048;49.590;11.026;2023-04-03T15:37:44;21.80;40.00
29281;DHT22;25048;49.590;11.026;2023-04-03T15:40:12;22.10;38.70
29281;DHT22;25048;49.590;11.026;2023-04-03T15:42:40;19.70;39.50
29281;DHT22;25048;49.590;11.026;2023-04-03T15:45:08;17.40;42.70
29281;DHT22;25048;49.590;11.026;2023-04-03T15:47:36;18.20;43.90
29281;DHT22;25048;49.590;11.026;2023-04-03T15:50:04;19.80;42.30
29281;DHT22;25048;49.590;11.026;2023-04-03T15:52:34;21.20;40.60
29281;DHT22;25048;49.590;11.026;2023-04-03T15:55:02;22.30;38.50
29281;DHT22;25048;49.590;11.026;2023-04-03T15:57:30;22.60;37.20
29281;DHT22;25048;49.590;11.026;2023-04-03T15:59:57;22.90;37.20
29281;DHT22;25048;49.590;11.026;2023-04-03T16:02:25;22.70;37.00
29281;DHT22;25048;49.590;11.026;2023-04-03T16:04:54;21.70;37.10
29281;DHT22;25048;49.590;11.026;2023-04-03T16:07:22;20.00;39.00
29281;DHT22;25048;49.590;11.026;2023-04-03T16:09:50;17.90;41.50
29281;DHT22;25048;49.590;11.026;2023-04-03T16:12:17;17.30;42.60
29281;DHT22;25048;49.590;11.026;2023-04-03T16:14:45;16.90;44.00
29281;DHT22;25048;49.590;11.026;2023-04-03T16:17:12;16.10;44.50
29281;DHT22;25048;49.590;11.026;2023-04-03T16:19:40;15.30;45.40
29281;DHT22;25048;49.590;11.026;2023-04-03T16:22:07;14.70;47.30
29281;DHT22;25048;49.590;11.026;2023-04-03T16:24:35;14.80;47.00
29281;DHT22;25048;49.590;11.026;2023-04-03T16:27:04;14.60;47.00
29281;DHT22;25048;49.590;11.026;2023-04-03T16:29:32;14.00;48.40
29281;DHT22;25048;49.590;11.026;2023-04-03T16:32:00;13.70;50.40
29281;DHT22;25048;49.590;11.026;2023-04-03T16:34:27;13.80;49.60
29281;DHT22;25048;49.590;11.026;2023-04-03T16:36:56;13.40;50.90
29281;DHT22;25048;49.590;11.026;2023-04-03T16:39:24;13.10;50.70
29281;DHT22;25048;49.590;11.026;2023-04-03T16:41:51;12.80;51.00
29281;DHT22;25048;49.590;11.026;2023-04-03T16:44:19;12.40;52.00
29281;DHT22;25048;49.590;11.026;2023-04-03T16:46:47;11.30;53.10
29281;DHT22;25048;49.590;11.026;2023-04-03T16:49:14;10.20;55.20
29281;DHT22;25048;49.590;11.026;2023-04-03T16:51:42;9.80;57.10
29281;DHT22;25048;49.590;11.026;2023-04-03T16:54:10;9.30;58.00
29281;DHT22;25048;49.590;11.026;2023-04-03T16:56:39;8.70;59.90
29281;DHT22;25048;49.590;11.026;2023-04-03T16:59:07;8.30;59.90
29281;DHT22;25048;49.590;11.026;2023-04-03T17:01:35;8.00;61.10